• Join FlightAware (Why Join?)
  • Login
  • US Flag 
06:44PM EDT


 

Airport Tracker/Info


-or-


 

Live Flight TrackerFlight Track Log ✈ EJA922 ✈ 14-Nov-2013 ✈ KTEB - KPBI

Flight Track Log - Related Links

Times and Time Zones

All times are in EST time to prevent confusion due to time zone crossing. See the EJA922 flight status page for this flight to view local times or setup timezone preferences in your user account.

Time Position Orientation Groundspeed Altitude Reporting Facility
EST Latitude Longitude Course Direction KTS MPH feet Rate Location/Type
10:14AM 40.8225 -74.1192 240° Southwest 187 215 1,500  Level New York Center
10:15AM 40.8025 -74.1650 240° Southwest 190 219 2,200 1,740 Climbing New York Center
10:16AM 40.7453 -74.1950 202° Southwest 251 289 5,000 2,820 Climbing New York Center
10:17AM 40.6692 -74.2350 202° Southwest 272 313 7,900 3,000 Climbing New York Center
10:18AM 40.6239 -74.2872 221° Southwest 269 310 11,000 2,520 Climbing New York Center
10:19AM 40.5308 -74.3317 200° South 354 407 13,000 2,100 Climbing New York Center
10:20AM 40.4683 -74.2575 138° Southeast 390 449 15,300 1,980 Climbing New York Center
10:21AM 40.3706 -74.1872 151° Southeast 380 437 17,000 840 Climbing New York Center
10:22AM 40.2814 -74.1719 173° South 367 422 17,000  Level New York Center
10:23AM 40.1825 -74.2022 193° South 344 396 17,000  Level New York Center
10:24AM 40.0878 -74.2300 193° South 344 396 17,000 660 Level New York Center
10:25AM 39.9950 -74.2661 197° South 351 404 18,400 1,980 Climbing New York Center
10:27AM 39.8517 -74.4347 222° Southwest 357 411 23,200 2,340 Climbing Washington Center
10:28AM 39.7733 -74.5333 224° Southwest 382 440 25,700 2,640 Climbing Washington Center
10:29AM 39.6950 -74.6289 223° Southwest 393 452 28,400 2,580 Climbing Washington Center
10:30AM 39.6144 -74.7294 224° Southwest 399 459 30,800 1,680 Climbing Washington Center
10:31AM 39.5319 -74.8328 224° Southwest 404 465 31,800 960 Climbing Washington Center
10:32AM 39.4389 -74.9467 223° Southwest 431 496 32,800 960 Climbing Washington Center
10:33AM 39.3414 -75.0628 223° Southwest 460 529 33,800 540 Climbing Washington Center
10:34AM 39.2231 -75.1442 208° Southwest 478 550 34,000 480 Climbing Washington Center
10:35AM 39.0897 -75.2064 200° South 483 556 34,800 1,020 Climbing Washington Center
10:36AM 38.9608 -75.2581 197° South 488 562 36,100 1,320 Climbing Washington Center
10:37AM 38.8358 -75.3092 198° South 483 556 37,500 1,440 Climbing Washington Center
10:38AM 38.7128 -75.3603 198° South 483 556 39,000 1,200 Climbing Washington Center
10:39AM 38.5858 -75.4083 196° South 483 556 40,000 480 Climbing Washington Center
10:40AM 38.4586 -75.4617 198° South 483 556 40,000  Level Washington Center
10:41AM 38.3317 -75.5228 201° Southwest 483 556 40,000  Level Washington Center
10:42AM 38.2086 -75.5944 205° Southwest 483 556 40,000  Level Washington Center
10:43AM 38.0875 -75.6736 207° Southwest 483 556 40,000  Level Washington Center
10:44AM 37.9708 -75.7525 208° Southwest 488 562 40,000  Level Washington Center
10:45AM 37.8456 -75.8258 205° Southwest 488 562 40,000  Level Washington Center
10:46AM 37.7181 -75.8675 194° South 488 562 40,000 180 Level Washington Center
10:47AM 37.5825 -75.8828 185° South 485 558 40,400 660 Climbing Washington Center
10:48AM 37.4492 -75.9006 186° South 485 558 41,400 900 Climbing Washington Center
10:49AM 37.3278 -75.9600 201° Southwest 473 544 42,300 780 Climbing Washington Center
10:50AM 37.1983 -76.0300 203° Southwest 462 532 43,000 300 Climbing Washington Center
10:51AM 37.0939 -76.0944 206° Southwest 462 532 43,000  Level Washington Center
10:52AM 36.9683 -76.1586 202° Southwest 473 544 43,000  Level Washington Center
10:53AM 36.8469 -76.2253 204° Southwest 480 552 43,000  Level Washington Center
10:54AM 36.7256 -76.2942 204° Southwest 480 552 43,000  Level Washington Center
10:55AM 36.5917 -76.3706 205° Southwest 480 552 43,000  Level Washington Center
10:56AM 36.4703 -76.4392 204° Southwest 480 552 43,000  Level Washington Center
10:57AM 36.3444 -76.5047 203° Southwest 480 552 43,000  Level Washington Center
10:58AM 36.2208 -76.5731 204° Southwest 480 552 43,000  Level Washington Center
10:59AM 36.0972 -76.6383 203° Southwest 480 552 43,000  Level Washington Center
11:00AM 35.9714 -76.7033 203° Southwest 480 552 43,000  Level Washington Center
11:01AM 35.8478 -76.7708 204° Southwest 485 558 43,000  Level Washington Center
11:02AM 35.7239 -76.8406 205° Southwest 480 552 43,000  Level Washington Center
11:03AM 35.6042 -76.9053 204° Southwest 480 552 43,000  Level Washington Center
11:05AM 35.3586 -77.0361 203° Southwest 480 552 43,000  Level Washington Center
11:06AM 35.2369 -77.1000 203° Southwest 480 552 43,000  Level Washington Center
11:07AM 35.1150 -77.1664 204° Southwest 480 552 43,000  Level Washington Center
11:08AM 34.9911 -77.2297 203° Southwest 480 552 43,000  Level Washington Center
11:09AM 34.8711 -77.2958 204° Southwest 480 552 43,000  Level Washington Center
11:10AM 34.7492 -77.3589 203° Southwest 480 552 43,000  Level Washington Center
11:11AM 34.6314 -77.4194 203° Southwest 480 552 43,000  Level Washington Center
11:12AM 34.5056 -77.4747 200° South 480 552 43,000  Level Washington Center
11:13AM 34.3733 -77.5169 195° South 485 558 43,000  Level Washington Center
11:15AM 34.1297 -77.5894 194° South 479 551 43,000  Level Jacksonville Center
11:16AM 34.0000 -77.6325 195° South 485 558 43,000  Level Jacksonville Center
11:17AM 33.8703 -77.6728 194° South 485 558 43,000  Level Jacksonville Center
11:18AM 33.7386 -77.7181 196° South 485 558 43,000  Level Jacksonville Center
11:19AM 33.5944 -77.7639 195° South 490 564 43,000  Level Jacksonville Center
11:20AM 33.4625 -77.8064 195° South 490 564 43,000  Level Jacksonville Center
11:21AM 33.3328 -77.8461 194° South 490 564 43,000 -60 Level Jacksonville Center
11:22AM 33.2175 -77.8825 195° South 485 558 42,900  Descending Jacksonville Center
11:23AM 33.0897 -77.9244 195° South 485 558 43,000  Climbing Jacksonville Center
11:24AM 32.9617 -77.9636 194° South 485 558 43,000  Level Jacksonville Center
11:25AM 32.8319 -78.0028 194° South 485 558 43,000  Level Jacksonville Center
11:26AM 32.7042 -78.0444 195° South 485 558 43,000  Level Jacksonville Center
11:27AM 32.5783 -78.0856 195° South 485 558 43,000  Level Jacksonville Center
11:28AM 32.4483 -78.1219 193° South 485 558 43,000  Level Jacksonville Center
11:29AM 32.3203 -78.1606 194° South 485 558 43,000  Level Jacksonville Center
11:30AM 32.1903 -78.2017 195° South 485 558 43,000  Level Jacksonville Center
11:31AM 32.0503 -78.2506 196° South 485 558 43,000  Level Jacksonville Center
11:32AM 31.9242 -78.2886 194° South 485 558 43,000  Level Jacksonville Center
11:33AM 31.7964 -78.3317 196° South 480 552 43,000  Level Jacksonville Center
11:34AM 31.6683 -78.3722 195° South 481 554 43,000  Level Jacksonville Center
11:35AM 31.5425 -78.4100 194° South 465 535 43,000 -60 Level Jacksonville Center
11:36AM 31.4164 -78.4500 195° South 471 542 42,900  Descending Jacksonville Center
11:37AM 31.2883 -78.4903 195° South 472 543 43,000  Climbing Jacksonville Center
11:38AM 31.1625 -78.5278 194° South 465 535 43,000  Level Jacksonville Center
11:39AM 31.0325 -78.5750 197° South 474 545 43,000  Level Jacksonville Center
11:40AM 30.9167 -78.6069 193° South 474 545 43,000  Level Jacksonville Center
11:41AM 30.7908 -78.6464 195° South 466 536 43,000  Level Jacksonville Center
11:42AM 30.6606 -78.6858 195° South 480 552 43,000  Level Jacksonville Center
11:42AM 30.5914 -78.7106 197° South 476 548 43,000  Level Miami Center
11:43AM 30.4678 -78.7564 198° South 456 525 43,000  Level Miami Center
11:44AM 30.3442 -78.8000 197° South 464 534 43,000  Level Miami Center
11:45AM 30.2164 -78.8456 197° South 474 545 43,000  Level Miami Center
11:46AM 30.0908 -78.8914 198° South 474 545 43,000  Level Miami Center
11:47AM 29.9711 -78.9442 201° Southwest 479 551 43,000  Level Miami Center
11:48AM 29.8456 -78.9847 196° South 474 545 43,000  Level Miami Center
11:49AM 29.7158 -79.0156 192° South 474 545 43,000  Level Miami Center
11:50AM 29.6006 -79.0397 190° South 474 545 43,000  Level Miami Center
11:51AM 29.4669 -79.0583 187° South 474 545 43,000  Level Miami Center
11:52AM 29.3414 -79.0844 190° South 469 540 43,000  Level Miami Center
11:53AM 29.2075 -79.1078 189° South 469 540 43,000  Level Miami Center
11:54AM 29.0756 -79.1314 189° South 476 548 43,000  Level Miami Center
11:55AM 28.9458 -79.1547 189° South 481 554 43,000  Level Miami Center
11:56AM 28.8119 -79.1803 189° South 487 560 43,000 -1,320 Level Miami Center
11:57AM 28.6781 -79.2011 188° South 481 554 40,400 -2,880 Descending Miami Center
11:58AM 28.5503 -79.2244 189° South 481 554 37,300 -3,300 Descending Miami Center
11:59AM 28.4164 -79.2478 189° South 481 554 33,900 -3,480 Descending Miami Center
12:00PM 28.2803 -79.2731 189° South 492 566 30,400 -3,180 Descending Miami Center
12:01PM 28.1439 -79.3125 194° South 497 572 27,600 -2,580 Descending Miami Center
12:02PM 28.0239 -79.3783 206° Southwest 488 562 25,300 -2,400 Descending Miami Center
12:03PM 27.9078 -79.4439 207° Southwest 482 555 22,900 -2,460 Descending Miami Center
12:04PM 27.7875 -79.5139 207° Southwest 458 527 20,400 -2,280 Descending Miami Center
12:05PM 27.6800 -79.5722 206° Southwest 444 511 18,400 -2,100 Descending Miami Center
12:06PM 27.5722 -79.6353 207° Southwest 433 498 16,300 -2,100 Descending Miami Center
12:07PM 27.4772 -79.6892 207° Southwest 433 498 14,300 -1,920 Descending Miami Center
12:08PM 27.3803 -79.7431 206° Southwest 413 475 12,500 -1,800 Descending Miami Center
12:09PM 27.2914 -79.7944 207° Southwest 364 419 10,700 -1,680 Descending Miami Center
12:10PM 27.2156 -79.8347 205° Southwest 321 369 9,200 -1,380 Descending Miami Center
12:11PM 27.1436 -79.8747 206° Southwest 299 344 8,000 -1,080 Descending Miami Center
12:12PM 27.0781 -79.9128 207° Southwest 294 338 7,100 -1,200 Descending Miami Center
12:13PM 27.0083 -79.9528 207° Southwest 288 331 5,600 -1,500 Descending Miami Center
12:14PM 26.9364 -80.0000 210° Southwest 288 331 4,100 -840 Descending Miami Center
12:15PM 26.8747 -80.0519 217° Southwest 283 326 4,000 -60 Descending Miami Center
12:16PM 26.8150 -80.1036 218° Southwest 278 320 4,000 -540 Level Miami Center
12:17PM 26.7819 -80.1772 243° Southwest 267 307 3,000 -1,020 Descending Miami Center
12:19PM 26.6832 -80.0956 271° West  Level Estimated
12:26PM 26.6832 -80.0956 110° East  Level Estimated
12:27PM 26.6832 -80.0956 110° East  Level Estimated
12:28PM 26.6832 -80.0956 110° East  Level Estimated
12:29PM 26.6832 -80.0956 110° East  Level Estimated
12:30PM 26.6832 -80.0956 110° East  Level Estimated